createdAt,value
2019-04-28T00:00:46.891Z,98.44
2019-04-28T00:01:46.887Z,97.61
2019-04-28T00:02:46.871Z,98.02
2019-04-28T00:03:46.860Z,97.82
2019-04-28T00:04:46.859Z,98.23
2019-04-28T00:05:46.838Z,97.61
2019-04-28T00:06:46.830Z,98.54
2019-04-28T00:07:46.816Z,98.44
2019-04-28T00:08:46.805Z,98.44
2019-04-28T00:09:46.805Z,98.23
2019-04-28T00:10:46.785Z,98.75
2019-04-28T00:11:46.776Z,98.13
2019-04-28T00:12:46.765Z,97.92
2019-04-28T00:13:46.756Z,98.23
2019-04-28T00:14:46.752Z,97.92
2019-04-28T00:15:46.732Z,98.65
2019-04-28T00:16:46.720Z,97.20
2019-04-28T00:17:46.709Z,97.41
2019-04-28T00:18:46.699Z,97.51
2019-04-28T00:19:46.700Z,96.95
2019-04-28T00:20:46.687Z,97.09
2019-04-28T00:21:46.668Z,97.30
2019-04-28T00:22:46.657Z,97.30
2019-04-28T00:23:46.644Z,97.51
2019-04-28T00:24:46.643Z,98.23
2019-04-28T00:25:46.625Z,97.72
2019-04-28T00:26:46.651Z,97.45
2019-04-28T00:27:46.602Z,97.61
2019-04-28T00:28:46.592Z,97.61
2019-04-28T00:29:46.591Z,97.30
2019-04-28T00:30:46.571Z,97.30
2019-04-28T00:31:46.560Z,97.41
2019-04-28T00:32:46.552Z,97.20
2019-04-28T00:33:46.545Z,97.20
2019-04-28T00:34:46.538Z,96.69
2019-04-28T00:35:46.518Z,95.96
2019-04-28T00:36:46.507Z,96.37
2019-04-28T00:37:46.497Z,95.86
2019-04-28T00:38:46.486Z,95.65
2019-04-28T00:39:46.500Z,95.81
2019-04-28T00:40:46.512Z,95.92
2019-04-28T00:41:46.463Z,96.17
2019-04-28T00:42:46.443Z,95.03
2019-04-28T00:43:46.436Z,95.76
2019-04-28T00:44:46.444Z,95.45
2019-04-28T00:45:46.409Z,94.89
2019-04-28T00:46:46.412Z,95.34
2019-04-28T00:47:46.388Z,96.17
2019-04-28T00:48:46.378Z,96.17
2019-04-28T00:49:46.370Z,96.17
2019-04-28T00:50:46.365Z,95.55
2019-04-28T00:51:46.354Z,94.93
2019-04-28T00:52:46.336Z,94.72
2019-04-28T00:53:46.325Z,95.24
2019-04-28T00:54:46.314Z,96.06
2019-04-28T00:55:46.315Z,96.06
2019-04-28T00:56:46.293Z,95.45
2019-04-28T00:57:46.287Z,95.96
2019-04-28T00:58:46.271Z,95.14
2019-04-28T00:59:56.675Z,95.34
2019-04-28T01:00:47.261Z,95.14
2019-04-28T01:01:46.241Z,95.24
2019-04-28T01:02:46.229Z,95.14
2019-04-28T01:03:46.224Z,94.42
2019-04-28T01:04:46.207Z,94.10
2019-04-28T01:05:46.206Z,94.82
2019-04-28T01:06:46.186Z,94.82
2019-04-28T01:07:46.176Z,94.57
2019-04-28T01:08:46.167Z,94.72
2019-04-28T01:09:46.166Z,94.10
2019-04-28T01:10:46.153Z,94.21
2019-04-28T01:11:46.133Z,93.69
2019-04-28T01:12:46.689Z,93.79
2019-04-28T01:13:46.110Z,93.28
2019-04-28T01:14:46.100Z,93.69
2019-04-28T01:15:46.112Z,94.00
2019-04-28T01:16:46.080Z,94.57
2019-04-28T01:17:46.069Z,95.24
2019-04-28T01:18:46.057Z,95.76
2019-04-28T01:19:46.047Z,96.27
2019-04-28T01:20:46.047Z,96.58
2019-04-28T01:21:46.038Z,96.52
2019-04-28T01:22:46.016Z,96.21
2019-04-28T01:23:46.007Z,96.73
2019-04-28T01:24:45.994Z,97.25
2019-04-28T01:25:45.993Z,97.29
2019-04-28T01:26:45.972Z,97.29
2019-04-28T01:27:45.963Z,97.60
2019-04-28T01:28:45.951Z,97.29
2019-04-28T01:29:45.940Z,96.88
2019-04-28T01:30:45.940Z,96.88
2019-04-28T01:31:45.919Z,96.67
2019-04-28T01:32:45.910Z,96.56
2019-04-28T01:33:45.903Z,96.26
2019-04-28T01:34:45.887Z,96.15
2019-04-28T01:35:45.887Z,96.67
2019-04-28T01:36:45.865Z,96.21
2019-04-28T01:37:45.863Z,95.18
2019-04-28T01:38:45.843Z,94.87
2019-04-28T01:39:45.839Z,94.25
2019-04-28T01:40:45.831Z,94.10
2019-04-28T01:41:45.814Z,94.10
2019-04-28T01:42:45.806Z,93.28
2019-04-28T01:43:45.790Z,92.14
2019-04-28T01:44:45.781Z,92.14
2019-04-28T01:45:45.802Z,92.35
2019-04-28T01:46:45.759Z,92.55
2019-04-28T01:47:45.747Z,92.35
2019-04-28T01:48:45.739Z,92.66
2019-04-28T01:49:45.730Z,92.14
2019-04-28T01:50:45.716Z,91.42
2019-04-28T01:51:45.724Z,91.22
2019-04-28T01:52:45.696Z,91.52
2019-04-28T01:53:45.686Z,91.32
2019-04-28T01:54:45.675Z,90.28
2019-04-28T01:55:45.663Z,89.73
2019-04-28T01:56:45.664Z,89.73
2019-04-28T01:57:45.650Z,89.42
2019-04-28T01:58:45.631Z,89.52
2019-04-28T01:59:45.620Z,90.04
2019-04-28T02:00:45.610Z,91.28
2019-04-28T02:01:45.610Z,90.04
2019-04-28T02:02:45.588Z,92.04
2019-04-28T02:03:45.587Z,90.91
2019-04-28T02:04:45.568Z,89.87
2019-04-28T02:05:45.557Z,91.01
2019-04-28T02:06:45.555Z,88.90
2019-04-28T02:07:45.535Z,89.01
2019-04-28T02:08:45.526Z,89.73
2019-04-28T02:09:45.520Z,89.52
2019-04-28T02:10:45.505Z,89.73
2019-04-28T02:11:45.505Z,88.39
2019-04-28T02:12:45.483Z,89.22
2019-04-28T02:13:45.478Z,89.42
2019-04-28T02:14:45.460Z,89.22
2019-04-28T02:15:45.454Z,88.39
2019-04-28T02:16:45.449Z,86.74
2019-04-28T02:17:45.427Z,87.66
2019-04-28T02:18:45.421Z,87.15
2019-04-28T02:19:45.411Z,87.26
2019-04-28T02:20:45.396Z,87.66
2019-04-28T02:21:45.415Z,86.32
2019-04-28T02:22:45.374Z,86.80
2019-04-28T02:23:45.371Z,87.35
2019-04-28T02:24:45.359Z,85.77
2019-04-28T02:25:45.349Z,86.43
2019-04-28T02:26:45.357Z,87.32
2019-04-28T02:27:45.334Z,86.84
2019-04-28T02:28:45.312Z,86.22
2019-04-28T02:29:45.304Z,85.81
2019-04-28T02:30:49.352Z,85.91
2019-04-28T02:31:46.305Z,86.02
2019-04-28T02:32:45.273Z,84.99
2019-04-28T02:33:45.274Z,85.46
2019-04-28T02:34:45.259Z,85.46
2019-04-28T02:35:45.239Z,86.18
2019-04-28T02:36:45.269Z,86.08
2019-04-28T02:37:45.223Z,86.60
2019-04-28T02:38:45.209Z,86.60
2019-04-28T02:39:45.204Z,86.49
2019-04-28T02:40:45.190Z,85.97
2019-04-28T02:41:45.179Z,85.60
2019-04-28T02:42:45.173Z,85.77
2019-04-28T02:43:45.153Z,86.53
2019-04-28T02:44:45.143Z,86.22
2019-04-28T02:45:45.139Z,85.39
2019-04-28T02:46:45.121Z,84.74
2019-04-28T02:47:45.128Z,84.94
2019-04-28T02:48:45.102Z,84.94
2019-04-28T02:49:45.095Z,84.01
2019-04-28T02:50:45.076Z,84.84
2019-04-28T02:51:45.080Z,84.94
2019-04-28T02:52:45.064Z,86.08
2019-04-28T02:53:45.046Z,85.15
2019-04-28T02:54:45.040Z,86.39
2019-04-28T02:55:45.027Z,85.50
2019-04-28T02:56:45.015Z,86.60
2019-04-28T02:57:45.044Z,85.71
2019-04-28T02:58:44.994Z,85.05
2019-04-28T02:59:45.106Z,84.33
2019-04-28T03:01:01.383Z,85.05
2019-04-28T03:01:45.964Z,86.12
2019-04-28T03:02:44.963Z,85.71
2019-04-28T03:03:44.949Z,85.30
2019-04-28T03:04:44.935Z,85.50
2019-04-28T03:05:44.923Z,85.36
2019-04-28T03:06:44.917Z,85.60
2019-04-28T03:07:44.912Z,86.49
2019-04-28T03:08:44.885Z,85.71
2019-04-28T03:09:44.881Z,86.32
2019-04-28T03:10:44.866Z,86.80
2019-04-28T03:11:44.854Z,87.15
2019-04-28T03:12:44.863Z,87.26
2019-04-28T03:13:44.836Z,86.53
2019-04-28T03:14:44.824Z,87.66
2019-04-28T03:15:44.819Z,87.56
2019-04-28T03:16:44.802Z,87.26
2019-04-28T03:17:44.810Z,86.32
2019-04-28T03:18:44.783Z,87.56
2019-04-28T03:19:44.774Z,87.26
2019-04-28T03:20:44.755Z,86.94
2019-04-28T03:21:44.752Z,86.43
2019-04-28T03:22:44.759Z,87.15
2019-04-28T03:23:44.726Z,88.02
2019-04-28T03:24:44.711Z,90.39
2019-04-28T03:25:44.702Z,90.28
2019-04-28T03:26:44.697Z,90.43
2019-04-28T03:27:44.711Z,89.25
2019-04-28T03:28:44.669Z,90.80
2019-04-28T03:29:44.662Z,91.05
2019-04-28T03:30:44.657Z,91.56
2019-04-28T03:32:10.063Z,91.46
2019-04-28T03:32:53.695Z,92.29
2019-04-28T03:33:49.187Z,92.54
2019-04-28T03:34:45.627Z,92.23
2019-04-28T03:35:44.595Z,93.37
2019-04-28T03:36:44.589Z,92.64
2019-04-28T03:37:44.597Z,92.02
2019-04-28T03:38:44.563Z,92.33
2019-04-28T03:39:44.555Z,94.19
2019-04-28T03:40:44.543Z,93.37
2019-04-28T03:41:44.530Z,93.37
2019-04-28T03:42:44.525Z,94.13
2019-04-28T03:43:44.523Z,93.93
2019-04-28T03:44:44.499Z,93.30
2019-04-28T03:45:44.490Z,92.48
2019-04-28T03:46:44.477Z,92.33
2019-04-28T03:47:44.466Z,93.20
2019-04-28T03:48:44.464Z,94.03
2019-04-28T03:49:44.443Z,93.62
2019-04-28T03:50:44.440Z,92.68
2019-04-28T03:51:44.429Z,92.64
2019-04-28T03:52:44.427Z,92.79
2019-04-28T03:53:44.409Z,92.27
2019-04-28T03:54:44.389Z,91.44
2019-04-28T03:55:44.382Z,91.24
2019-04-28T03:56:44.368Z,91.34
2019-04-28T03:57:44.363Z,92.27
2019-04-28T03:58:44.359Z,92.79
2019-04-28T03:59:44.335Z,93.45
2019-04-28T04:00:44.328Z,93.35
2019-04-28T04:01:55.926Z,94.07
2019-04-28T04:02:45.304Z,94.59
2019-04-28T04:03:44.311Z,94.38
2019-04-28T04:04:44.281Z,93.80
2019-04-28T04:05:44.272Z,94.22
2019-04-28T04:06:44.262Z,94.37
2019-04-28T04:07:44.249Z,94.89
2019-04-28T04:08:44.249Z,95.19
2019-04-28T04:09:44.231Z,94.57
2019-04-28T04:10:44.218Z,93.54
2019-04-28T04:11:44.210Z,92.87
2019-04-28T04:12:44.220Z,93.08
2019-04-28T04:13:44.197Z,93.91
2019-04-28T04:14:44.175Z,92.77
2019-04-28T04:15:48.654Z,92.72
2019-04-28T04:16:45.152Z,90.87
2019-04-28T04:17:44.142Z,90.87
2019-04-28T04:18:44.144Z,89.89
2019-04-28T04:19:44.122Z,88.34
2019-04-28T04:20:44.129Z,88.24
2019-04-28T04:21:44.105Z,89.03
2019-04-28T04:22:44.090Z,88.96
2019-04-28T04:23:44.092Z,90.20
2019-04-28T04:24:44.067Z,89.44
2019-04-28T04:25:44.056Z,90.47
2019-04-28T04:26:44.046Z,88.76
2019-04-28T04:27:44.047Z,91.24
2019-04-28T04:28:44.040Z,89.13
2019-04-28T04:29:44.013Z,90.00
2019-04-28T04:30:44.004Z,88.76
2019-04-28T04:31:43.993Z,88.71
2019-04-28T04:32:43.987Z,88.61
2019-04-28T04:33:43.985Z,88.41
2019-04-28T04:34:43.962Z,88.51
2019-04-28T04:35:43.953Z,88.51
2019-04-28T04:36:43.941Z,88.31
2019-04-28T04:37:43.928Z,88.41
2019-04-28T04:38:46.422Z,88.41
2019-04-28T04:39:43.907Z,88.61
2019-04-28T04:40:43.896Z,88.31
2019-04-28T04:41:44.042Z,88.92
2019-04-28T04:42:43.874Z,89.34
2019-04-28T04:43:43.871Z,88.51
2019-04-28T04:44:43.856Z,88.37
2019-04-28T04:45:43.843Z,88.20
2019-04-28T04:46:43.843Z,88.37
2019-04-28T04:47:43.820Z,88.06
2019-04-28T04:48:43.816Z,88.26
2019-04-28T04:49:43.810Z,88.57
2019-04-28T04:50:43.789Z,87.23
2019-04-28T04:51:44.108Z,87.74
2019-04-28T04:52:43.781Z,87.85
2019-04-28T04:53:43.755Z,88.26
2019-04-28T04:54:43.754Z,87.74
2019-04-28T04:55:43.733Z,87.85
2019-04-28T04:56:43.723Z,87.85
2019-04-28T04:57:43.720Z,87.65
2019-04-28T04:58:43.704Z,88.57
2019-04-28T04:59:43.701Z,88.41
2019-04-28T05:00:43.680Z,87.65
2019-04-28T05:01:43.671Z,87.65
2019-04-28T05:02:51.206Z,88.26
2019-04-28T05:03:44.652Z,88.57
2019-04-28T05:04:43.646Z,88.26
2019-04-28T05:05:43.627Z,88.26
2019-04-28T05:06:43.616Z,89.81
2019-04-28T05:07:43.611Z,90.12
2019-04-28T05:08:43.595Z,89.95
2019-04-28T05:09:43.604Z,90.64
2019-04-28T05:10:43.574Z,89.81
2019-04-28T05:11:43.562Z,89.13
2019-04-28T05:12:43.552Z,90.06
2019-04-28T05:13:43.542Z,90.26
2019-04-28T05:14:43.541Z,90.53
2019-04-28T05:15:43.533Z,89.86
2019-04-28T05:16:43.511Z,90.16
2019-04-28T05:17:43.499Z,89.92
2019-04-28T05:18:43.493Z,89.92
2019-04-28T05:19:43.490Z,90.95
2019-04-28T05:20:43.466Z,89.92
2019-04-28T05:21:43.466Z,89.50
2019-04-28T05:22:43.446Z,89.71
2019-04-28T05:23:43.436Z,89.09
2019-04-28T05:24:46.349Z,88.31
2019-04-28T05:25:44.413Z,89.92
2019-04-28T05:26:47.854Z,89.71
2019-04-28T05:27:44.398Z,89.50
2019-04-28T05:28:50.539Z,89.71
2019-04-28T05:29:44.380Z,89.50
2019-04-28T05:30:43.363Z,89.61
2019-04-28T05:31:43.350Z,89.86
2019-04-28T05:32:49.560Z,90.68
2019-04-28T05:33:44.333Z,90.02
2019-04-28T05:34:46.677Z,91.09
2019-04-28T05:35:43.311Z,90.16
2019-04-28T05:36:44.707Z,89.65
2019-04-28T05:37:43.287Z,88.92
2019-04-28T05:38:43.275Z,89.54
2019-04-28T05:39:43.284Z,89.75
2019-04-28T05:40:43.253Z,89.65
2019-04-28T05:41:43.243Z,89.23
2019-04-28T05:42:43.231Z,89.34
2019-04-28T05:43:43.222Z,89.34
2019-04-28T05:44:43.234Z,88.92
2019-04-28T05:45:43.213Z,89.13
2019-04-28T05:46:43.189Z,89.23
2019-04-28T05:47:43.181Z,89.13
2019-04-28T05:48:43.169Z,88.82
2019-04-28T05:49:43.157Z,89.34
2019-04-28T05:50:43.156Z,89.65
2019-04-28T05:51:43.147Z,89.86
2019-04-28T05:52:43.129Z,90.00
2019-04-28T05:53:43.114Z,88.92
2019-04-28T05:54:43.104Z,90.47
2019-04-28T05:55:43.102Z,90.20
2019-04-28T05:56:43.083Z,90.52
2019-04-28T05:57:43.081Z,89.38
2019-04-28T05:58:43.061Z,90.41
2019-04-28T05:59:43.050Z,89.79
2019-04-28T06:00:43.050Z,89.89
2019-04-28T06:01:43.030Z,89.48
2019-04-28T06:02:55.475Z,89.69
2019-04-28T06:03:44.017Z,89.79
2019-04-28T06:04:42.997Z,91.65
2019-04-28T06:05:43.009Z,90.72
2019-04-28T06:06:42.977Z,92.27
2019-04-28T06:07:42.965Z,92.07
2019-04-28T06:08:42.968Z,91.24
2019-04-28T06:09:42.943Z,91.24
2019-04-28T06:10:42.942Z,90.00
2019-04-28T06:11:42.922Z,90.10
2019-04-28T06:12:42.912Z,90.41
2019-04-28T06:13:42.905Z,90.68
2019-04-28T06:14:42.895Z,91.44
2019-04-28T06:15:42.892Z,90.06
2019-04-28T06:16:42.871Z,91.13
2019-04-28T06:17:42.860Z,90.41
2019-04-28T06:18:42.849Z,90.83
2019-04-28T06:19:42.836Z,92.27
2019-04-28T06:20:42.846Z,92.89
2019-04-28T06:21:42.866Z,92.58
2019-04-28T06:22:42.812Z,92.27
2019-04-28T06:23:42.796Z,92.68
2019-04-28T06:24:42.783Z,92.38
2019-04-28T06:25:42.783Z,92.79
2019-04-28T06:26:42.762Z,92.99
2019-04-28T06:27:42.756Z,92.17
2019-04-28T06:28:42.744Z,93.82
2019-04-28T06:29:42.731Z,94.40
2019-04-28T06:30:42.730Z,92.74
2019-04-28T06:31:42.708Z,93.62
2019-04-28T06:32:42.698Z,94.29
2019-04-28T06:33:44.528Z,95.02
2019-04-28T06:34:42.683Z,93.47
2019-04-28T06:35:42.676Z,94.19
2019-04-28T06:36:42.657Z,93.32
2019-04-28T06:37:42.645Z,92.70
2019-04-28T06:38:42.634Z,91.94
2019-04-28T06:39:42.624Z,92.61
2019-04-28T06:40:42.636Z,92.10
2019-04-28T06:41:42.604Z,93.09
2019-04-28T06:42:42.590Z,90.31
2019-04-28T06:43:42.580Z,91.09
2019-04-28T06:44:42.571Z,90.84
2019-04-28T06:45:42.559Z,89.50
2019-04-28T06:46:42.572Z,86.66
2019-04-28T06:47:42.536Z,88.06
2019-04-28T06:48:42.526Z,87.13
2019-04-28T06:49:42.513Z,87.09
2019-04-28T06:50:42.504Z,86.99
2019-04-28T06:51:42.504Z,86.47
2019-04-28T06:52:42.489Z,85.17
2019-04-28T06:53:42.477Z,86.72
2019-04-28T06:54:42.465Z,86.21
2019-04-28T06:55:42.449Z,87.44
2019-04-28T06:56:42.449Z,87.38
2019-04-28T06:57:42.428Z,86.43
2019-04-28T06:58:42.416Z,82.91
2019-04-28T06:59:42.406Z,80.67
2019-04-28T07:00:42.399Z,75.71
2019-04-28T07:01:42.394Z,74.90
2019-04-28T07:02:42.373Z,75.76
2019-04-28T07:03:42.363Z,76.65
2019-04-28T07:04:42.354Z,77.54
2019-04-28T07:05:42.341Z,79.93
2019-04-28T07:06:42.345Z,81.57
2019-04-28T07:07:42.321Z,80.45
2019-04-28T07:08:42.307Z,81.37
2019-04-28T07:09:42.302Z,80.18
2019-04-28T07:10:42.291Z,78.98
2019-04-28T07:11:42.288Z,80.52
2019-04-28T07:12:42.270Z,81.04
2019-04-28T07:13:42.254Z,81.04
2019-04-28T07:14:42.248Z,81.62
2019-04-28T07:15:42.233Z,80.07
2019-04-28T07:16:42.231Z,78.57
2019-04-28T07:17:42.211Z,81.34
2019-04-28T07:18:42.204Z,81.28
2019-04-28T07:19:42.191Z,81.96
2019-04-28T07:20:42.188Z,80.15
2019-04-28T07:21:42.176Z,79.98
2019-04-28T07:22:42.155Z,81.42
2019-04-28T07:23:42.146Z,81.73
2019-04-28T07:24:44.790Z,80.22
2019-04-28T07:25:42.149Z,80.74
2019-04-28T07:26:42.122Z,80.02
2019-04-28T07:27:42.106Z,80.19
2019-04-28T07:28:42.091Z,79.26
2019-04-28T07:29:42.080Z,78.39
2019-04-28T07:30:42.069Z,74.56
2019-04-28T07:31:42.083Z,74.36
2019-04-28T07:32:42.047Z,71.29
2019-04-28T07:33:42.036Z,68.48
2019-04-28T07:34:42.027Z,65.09
2019-04-28T07:35:42.014Z,63.68
2019-04-28T07:36:42.003Z,62.63
2019-04-28T07:37:42.010Z,66.39
2019-04-28T07:38:41.983Z,70.26
2019-04-28T07:39:41.973Z,72.04
2019-04-28T07:40:41.959Z,72.31
2019-04-28T07:41:41.950Z,74.87
2019-04-28T07:42:41.951Z,74.36
2019-04-28T07:43:41.928Z,74.56
2019-04-28T07:44:41.920Z,75.62
2019-04-28T07:45:41.965Z,75.31
2019-04-28T07:46:41.911Z,77.06
2019-04-28T07:47:41.899Z,75.04
2019-04-28T07:48:41.876Z,76.58
2019-04-28T07:49:41.899Z,76.37
2019-04-28T07:50:41.895Z,78.32
2019-04-28T07:51:41.853Z,80.23
2019-04-28T07:52:41.842Z,75.35
2019-04-28T07:53:41.824Z,74.87
2019-04-28T07:54:41.809Z,76.75
2019-04-28T07:55:41.798Z,77.47
2019-04-28T07:56:41.788Z,78.67
2019-04-28T07:57:41.803Z,78.25
2019-04-28T07:58:41.764Z,82.26
2019-04-28T07:59:41.752Z,79.96
2019-04-28T08:00:41.757Z,77.33
2019-04-28T08:01:41.731Z,75.49
2019-04-28T08:02:41.737Z,76.00
2019-04-28T08:03:49.248Z,76.72
2019-04-28T08:04:42.696Z,78.12
2019-04-28T08:05:41.687Z,75.73
2019-04-28T08:06:41.676Z,76.24
2019-04-28T08:07:41.677Z,75.48
2019-04-28T08:08:41.659Z,73.44
2019-04-28T08:09:41.644Z,73.44
2019-04-28T08:10:41.633Z,74.77
2019-04-28T08:11:41.622Z,73.95
2019-04-28T08:12:41.618Z,73.64
2019-04-28T08:13:41.599Z,72.41
2019-04-28T08:14:41.588Z,71.80
2019-04-28T08:15:41.623Z,72.72
2019-04-28T08:16:41.571Z,72.58
2019-04-28T08:17:41.570Z,71.83
2019-04-28T08:18:41.551Z,71.29
2019-04-28T08:19:41.554Z,70.92
2019-04-28T08:20:41.524Z,69.89
2019-04-28T08:21:41.513Z,69.59
2019-04-28T08:22:41.512Z,70.47
2019-04-28T08:23:47.231Z,70.37
2019-04-28T08:24:42.484Z,71.97
2019-04-28T08:25:41.470Z,69.56
2019-04-28T08:26:41.462Z,66.16
2019-04-28T08:27:41.463Z,67.46
2019-04-28T08:28:41.440Z,64.00
2019-04-28T08:29:41.423Z,62.10
2019-04-28T08:30:41.415Z,64.26
2019-04-28T08:31:41.401Z,64.95
2019-04-28T08:32:41.401Z,65.52
2019-04-28T08:33:41.382Z,65.04
2019-04-28T08:34:41.370Z,69.90
2019-04-28T08:35:41.360Z,65.31
2019-04-28T08:36:41.347Z,67.18
2019-04-28T08:37:41.369Z,64.29
2019-04-28T08:38:41.327Z,62.02
2019-04-28T08:39:41.318Z,63.22
2019-04-28T08:40:41.316Z,61.75
2019-04-28T08:41:41.295Z,64.12
2019-04-28T08:42:41.299Z,66.47
2019-04-28T08:43:41.273Z,67.18
2019-04-28T08:44:41.260Z,65.62
2019-04-28T08:45:41.280Z,67.49
2019-04-28T08:46:41.239Z,66.94
2019-04-28T08:47:41.256Z,67.69
2019-04-28T08:48:41.216Z,65.01
2019-04-28T08:49:41.210Z,64.73
2019-04-28T08:50:41.194Z,66.36
2019-04-28T08:51:41.187Z,64.46
2019-04-28T08:52:41.175Z,64.97
2019-04-28T08:53:41.188Z,62.39
2019-04-28T08:54:41.153Z,65.25
2019-04-28T08:55:41.147Z,63.45
2019-04-28T08:56:41.130Z,60.61
2019-04-28T08:57:41.126Z,59.82
2019-04-28T08:58:41.120Z,58.25
2019-04-28T08:59:41.118Z,59.50
2019-04-28T09:00:41.085Z,58.30
2019-04-28T09:01:41.077Z,59.70
2019-04-28T09:02:41.066Z,58.74
2019-04-28T09:03:41.063Z,62.13
2019-04-28T09:04:41.052Z,61.59
2019-04-28T09:05:41.031Z,62.39
2019-04-28T09:06:41.024Z,63.26
2019-04-28T09:07:41.011Z,66.59
2019-04-28T09:08:41.006Z,69.72
2019-04-28T09:09:40.988Z,70.91
2019-04-28T09:10:40.977Z,71.04
2019-04-28T09:11:40.965Z,72.14
2019-04-28T09:12:40.989Z,75.18
2019-04-28T09:13:43.692Z,77.06
2019-04-28T09:14:40.932Z,76.79
2019-04-28T09:15:40.928Z,78.88
2019-04-28T09:16:40.908Z,78.98
2019-04-28T09:17:40.899Z,82.62
2019-04-28T09:18:40.901Z,81.59
2019-04-28T09:19:42.414Z,81.83
2019-04-28T09:20:40.864Z,81.52
2019-04-28T09:21:40.896Z,82.55
2019-04-28T09:22:40.845Z,83.31
2019-04-28T09:23:40.848Z,83.51
2019-04-28T09:24:40.827Z,83.97
2019-04-28T09:25:40.811Z,81.29
2019-04-28T09:26:40.804Z,79.95
2019-04-28T09:27:40.789Z,82.39
2019-04-28T09:28:40.786Z,79.91
2019-04-28T09:29:40.769Z,78.37
2019-04-28T09:30:40.759Z,78.64
2019-04-28T09:31:40.772Z,76.21
2019-04-28T09:32:40.737Z,77.41
2019-04-28T09:33:40.749Z,79.67
2019-04-28T09:34:40.713Z,82.96
2019-04-28T09:35:40.706Z,82.14
2019-04-28T09:36:40.690Z,79.16
2019-04-28T09:37:40.681Z,81.11
2019-04-28T09:38:40.672Z,79.63
2019-04-28T09:39:40.668Z,80.77
2019-04-28T09:40:40.646Z,82.57
2019-04-28T09:41:40.636Z,79.60
2019-04-28T09:42:40.625Z,79.33
2019-04-28T09:43:40.614Z,80.83
2019-04-28T09:44:40.615Z,82.84
2019-04-28T09:45:40.594Z,80.65
2019-04-28T09:46:40.614Z,77.64
2019-04-28T09:47:40.580Z,75.90
2019-04-28T09:48:40.559Z,75.90
2019-04-28T09:49:40.561Z,75.31
2019-04-28T09:50:40.536Z,76.47
2019-04-28T09:51:40.527Z,72.24
2019-04-28T09:52:40.519Z,71.94
2019-04-28T09:53:40.554Z,72.00
2019-04-28T09:54:40.531Z,68.16
2019-04-28T09:55:40.485Z,70.40
2019-04-28T09:56:40.477Z,70.51
2019-04-28T09:57:40.463Z,68.87
2019-04-28T09:58:40.450Z,69.76
2019-04-28T09:59:40.492Z,71.84
2019-04-28T10:00:40.428Z,66.47
2019-04-28T10:01:40.427Z,67.72
2019-04-28T10:02:40.408Z,67.32
2019-04-28T10:03:40.401Z,64.84
2019-04-28T10:04:41.669Z,67.76
2019-04-28T10:05:40.380Z,68.48
2019-04-28T10:06:40.388Z,69.80
2019-04-28T10:07:40.353Z,67.21
2019-04-28T10:08:40.379Z,68.67
2019-04-28T10:09:40.352Z,70.31
2019-04-28T10:10:40.326Z,67.07
2019-04-28T10:11:40.311Z,69.73
2019-04-28T10:12:40.303Z,67.92
2019-04-28T10:13:40.286Z,68.43
2019-04-28T10:14:40.282Z,69.79
2019-04-28T10:15:40.287Z,69.58
2019-04-28T10:16:40.251Z,70.71
2019-04-28T10:17:40.248Z,72.34
2019-04-28T10:18:40.235Z,72.24
2019-04-28T10:19:40.229Z,72.69
2019-04-28T10:20:40.212Z,73.44
2019-04-28T10:21:40.205Z,73.44
2019-04-28T10:22:40.184Z,73.64
2019-04-28T10:23:40.174Z,73.95
2019-04-28T10:24:40.194Z,71.62
2019-04-28T10:25:40.157Z,72.68
2019-04-28T10:26:40.156Z,75.35
2019-04-28T10:27:40.131Z,77.95
2019-04-28T10:28:40.121Z,79.28
2019-04-28T10:29:40.133Z,79.63
2019-04-28T10:30:40.098Z,81.62
2019-04-28T10:31:40.090Z,83.33
2019-04-28T10:32:40.076Z,84.61
2019-04-28T10:33:40.065Z,85.26
2019-04-28T10:34:40.063Z,87.46
2019-04-28T10:35:40.050Z,88.84
2019-04-28T10:36:40.032Z,89.09
2019-04-28T10:37:40.034Z,90.88
2019-04-28T10:38:40.011Z,91.50
2019-04-28T10:39:40.009Z,92.53
2019-04-28T10:40:39.991Z,93.98
2019-04-28T10:41:39.978Z,94.59
2019-04-28T10:42:39.968Z,95.00
2019-04-28T10:43:39.975Z,94.08
2019-04-28T10:44:39.964Z,94.70
2019-04-28T10:45:39.936Z,95.21
2019-04-28T10:46:39.925Z,95.56
2019-04-28T10:47:39.912Z,96.34
2019-04-28T10:48:39.903Z,95.98
2019-04-28T10:49:39.890Z,96.24
2019-04-28T10:50:39.902Z,96.39
2019-04-28T10:51:39.880Z,96.14
2019-04-28T10:52:39.859Z,95.83
2019-04-28T10:53:39.857Z,96.14
2019-04-28T10:54:39.838Z,95.52
2019-04-28T10:55:39.858Z,94.96
2019-04-28T10:56:39.830Z,93.01
2019-04-28T10:57:39.809Z,92.63
2019-04-28T10:58:39.793Z,91.97
2019-04-28T10:59:39.783Z,91.87
2019-04-28T11:00:39.782Z,92.44
2019-04-28T11:01:39.765Z,91.06
2019-04-28T11:02:39.751Z,90.20
2019-04-28T11:03:39.745Z,87.05
2019-04-28T11:04:39.730Z,89.03
2019-04-28T11:05:39.728Z,90.47
2019-04-28T11:06:39.719Z,86.32
2019-04-28T11:07:39.718Z,86.27
2019-04-28T11:08:39.689Z,85.31
2019-04-28T11:09:39.676Z,82.47
2019-04-28T11:10:39.672Z,84.63
2019-04-28T11:11:39.732Z,86.89
2019-04-28T11:12:39.643Z,86.79
2019-04-28T11:13:39.636Z,86.07
2019-04-28T11:14:39.619Z,85.39
2019-04-28T11:15:39.627Z,86.17
2019-04-28T11:16:39.598Z,86.07
2019-04-28T11:17:39.589Z,85.82
2019-04-28T11:18:39.645Z,84.59
2019-04-28T11:19:39.567Z,86.38
2019-04-28T11:20:39.571Z,85.76
2019-04-28T11:21:39.556Z,87.16
2019-04-28T11:22:39.553Z,87.53
2019-04-28T11:23:39.521Z,87.84
2019-04-28T11:24:39.511Z,86.98
2019-04-28T11:25:39.550Z,85.58
2019-04-28T11:26:39.496Z,85.78
2019-04-28T11:27:39.488Z,86.98
2019-04-28T11:28:39.469Z,85.17
2019-04-28T11:29:39.457Z,85.58
2019-04-28T11:30:39.490Z,85.78
2019-04-28T11:31:39.436Z,85.82
2019-04-28T11:32:39.430Z,85.72
2019-04-28T11:33:39.414Z,86.13
2019-04-28T11:34:39.401Z,86.13
2019-04-28T11:35:39.408Z,85.35
2019-04-28T11:36:39.387Z,86.79
2019-04-28T11:37:39.376Z,88.59
2019-04-28T11:38:39.359Z,87.53
2019-04-28T11:39:39.350Z,84.59
2019-04-28T11:40:39.404Z,84.69
2019-04-28T11:41:39.346Z,86.03
2019-04-28T11:42:39.314Z,85.11
2019-04-28T11:43:39.319Z,86.95
2019-04-28T11:44:39.294Z,85.82
2019-04-28T11:45:39.358Z,84.53
2019-04-28T11:46:39.283Z,85.86
2019-04-28T11:47:39.328Z,83.40
2019-04-28T11:48:39.255Z,84.01
2019-04-28T11:49:39.261Z,85.14
2019-04-28T11:50:39.231Z,84.32
2019-04-28T11:51:39.230Z,83.67
2019-04-28T11:52:39.245Z,83.98
2019-04-28T11:53:39.200Z,83.67
2019-04-28T11:54:39.189Z,83.22
2019-04-28T11:55:39.175Z,84.82
2019-04-28T11:56:41.762Z,83.51
2019-04-28T11:57:39.157Z,82.31
2019-04-28T11:58:39.148Z,80.09
2019-04-28T11:59:39.143Z,82.31
2019-04-28T12:00:39.120Z,79.10
2019-04-28T12:01:39.119Z,77.97
2019-04-28T12:02:39.103Z,79.82
2019-04-28T12:03:39.092Z,81.24
2019-04-28T12:04:39.127Z,77.52
2019-04-28T12:05:39.066Z,76.26
2019-04-28T12:06:39.085Z,77.62
2019-04-28T12:07:39.046Z,74.25
2019-04-28T12:08:39.045Z,72.75
2019-04-28T12:09:39.024Z,76.60
2019-04-28T12:10:39.012Z,73.33
2019-04-28T12:11:39.014Z,74.05
2019-04-28T12:12:39.015Z,74.18
2019-04-28T12:13:38.991Z,77.22
2019-04-28T12:14:38.982Z,78.03
2019-04-28T12:15:38.958Z,71.15
2019-04-28T12:16:39.010Z,70.98
2019-04-28T12:17:38.939Z,72.62
2019-04-28T12:18:38.928Z,73.16
2019-04-28T12:19:38.951Z,69.42
2019-04-28T12:20:38.913Z,69.96
2019-04-28T12:21:38.912Z,73.47
2019-04-28T12:22:38.881Z,70.17
2019-04-28T12:23:38.866Z,72.24
2019-04-28T12:24:38.857Z,73.20
2019-04-28T12:25:38.886Z,72.75
2019-04-28T12:26:38.848Z,73.23
2019-04-28T12:27:38.838Z,71.83
2019-04-28T12:28:38.819Z,73.44
2019-04-28T12:29:38.803Z,73.54
2019-04-28T12:30:38.792Z,75.65
2019-04-28T12:31:38.792Z,72.41
2019-04-28T12:32:38.804Z,72.21
2019-04-28T12:33:38.761Z,73.03
2019-04-28T12:34:38.758Z,74.25
2019-04-28T12:35:47.701Z,76.29
2019-04-28T12:36:39.755Z,72.65
2019-04-28T12:37:38.714Z,73.16
2019-04-28T12:38:38.709Z,71.43
2019-04-28T12:39:38.694Z,71.02
2019-04-28T12:40:38.680Z,68.77
2019-04-28T12:41:38.672Z,70.03
2019-04-28T12:42:38.673Z,70.03
2019-04-28T12:43:38.645Z,70.14
2019-04-28T12:44:38.638Z,70.04
2019-04-28T12:45:38.624Z,71.50
2019-04-28T12:46:38.620Z,67.97
2019-04-28T12:47:38.615Z,70.01
2019-04-28T12:48:38.608Z,66.35
2019-04-28T12:49:38.583Z,64.29
2019-04-28T12:50:38.570Z,65.19
2019-04-28T12:51:38.558Z,68.21
2019-04-28T12:52:38.558Z,66.38